sensor_id;sensor_type;location;lat;lon;timestamp;P1;durP1;ratioP1;P2;durP2;ratioP2
68214;SDS011;55036;52.138;5.236;2023-06-22T00:00:51;6.38;;;4.40;;
68214;SDS011;55036;52.138;5.236;2023-06-22T00:03:19;7.78;;;4.55;;
68214;SDS011;55036;52.138;5.236;2023-06-22T00:05:48;5.30;;;4.20;;
68214;SDS011;55036;52.138;5.236;2023-06-22T00:08:15;5.57;;;4.40;;
68214;SDS011;55036;52.138;5.236;2023-06-22T00:10:42;6.93;;;4.40;;
68214;SDS011;55036;52.138;5.236;2023-06-22T00:13:10;6.22;;;4.35;;
68214;SDS011;55036;52.138;5.236;2023-06-22T00:15:38;7.13;;;4.72;;
68214;SDS011;55036;52.138;5.236;2023-06-22T00:18:07;6.75;;;4.57;;
68214;SDS011;55036;52.138;5.236;2023-06-22T00:20:34;5.13;;;4.32;;
68214;SDS011;55036;52.138;5.236;2023-06-22T00:23:05;8.70;;;5.20;;
68214;SDS011;55036;52.138;5.236;2023-06-22T00:25:34;8.63;;;5.28;;
68214;SDS011;55036;52.138;5.236;2023-06-22T00:28:02;9.77;;;5.63;;
68214;SDS011;55036;52.138;5.236;2023-06-22T00:30:30;6.80;;;5.10;;
68214;SDS011;55036;52.138;5.236;2023-06-22T00:32:57;6.82;;;5.18;;
68214;SDS011;55036;52.138;5.236;2023-06-22T00:35:25;6.40;;;4.75;;
68214;SDS011;55036;52.138;5.236;2023-06-22T00:37:56;7.32;;;5.10;;
68214;SDS011;55036;52.138;5.236;2023-06-22T00:40:27;5.95;;;4.57;;
68214;SDS011;55036;52.138;5.236;2023-06-22T01:21:50;7.25;;;5.88;;
68214;SDS011;55036;52.138;5.236;2023-06-22T01:24:30;7.43;;;5.97;;
68214;SDS011;55036;52.138;5.236;2023-06-22T01:27:15;6.13;;;5.10;;
68214;SDS011;55036;52.138;5.236;2023-06-22T01:29:51;8.77;;;5.03;;
68214;SDS011;55036;52.138;5.236;2023-06-22T01:32:28;7.57;;;4.95;;
68214;SDS011;55036;52.138;5.236;2023-06-22T01:34:57;7.57;;;5.40;;
68214;SDS011;55036;52.138;5.236;2023-06-22T01:37:26;9.43;;;6.22;;
68214;SDS011;55036;52.138;5.236;2023-06-22T01:39:54;6.80;;;5.25;;
68214;SDS011;55036;52.138;5.236;2023-06-22T01:42:23;6.50;;;5.05;;
68214;SDS011;55036;52.138;5.236;2023-06-22T01:44:54;9.73;;;6.85;;
68214;SDS011;55036;52.138;5.236;2023-06-22T01:47:22;9.32;;;6.82;;
68214;SDS011;55036;52.138;5.236;2023-06-22T01:49:49;10.77;;;7.30;;
68214;SDS011;55036;52.138;5.236;2023-06-22T01:52:20;7.50;;;6.25;;
68214;SDS011;55036;52.138;5.236;2023-06-22T01:54:47;8.50;;;6.80;;
68214;SDS011;55036;52.138;5.236;2023-06-22T01:57:16;9.77;;;6.03;;
68214;SDS011;55036;52.138;5.236;2023-06-22T02:00:03;7.78;;;6.07;;
68214;SDS011;55036;52.138;5.236;2023-06-22T02:02:32;7.32;;;6.18;;
68214;SDS011;55036;52.138;5.236;2023-06-22T02:05:07;8.25;;;6.57;;
68214;SDS011;55036;52.138;5.236;2023-06-22T02:07:41;8.85;;;6.57;;
68214;SDS011;55036;52.138;5.236;2023-06-22T02:10:13;8.10;;;6.00;;
68214;SDS011;55036;52.138;5.236;2023-06-22T02:12:42;10.20;;;6.93;;
68214;SDS011;55036;52.138;5.236;2023-06-22T02:15:10;9.10;;;6.05;;
68214;SDS011;55036;52.138;5.236;2023-06-22T02:17:38;8.02;;;5.93;;
68214;SDS011;55036;52.138;5.236;2023-06-22T02:20:06;11.93;;;7.28;;
68214;SDS011;55036;52.138;5.236;2023-06-22T02:22:37;9.05;;;7.45;;
68214;SDS011;55036;52.138;5.236;2023-06-22T02:25:04;10.00;;;7.13;;
68214;SDS011;55036;52.138;5.236;2023-06-22T02:27:31;8.30;;;6.75;;
68214;SDS011;55036;52.138;5.236;2023-06-22T02:29:58;9.45;;;7.55;;
68214;SDS011;55036;52.138;5.236;2023-06-22T02:32:25;9.05;;;7.20;;
68214;SDS011;55036;52.138;5.236;2023-06-22T02:34:52;12.32;;;7.35;;
68214;SDS011;55036;52.138;5.236;2023-06-22T02:37:19;9.98;;;7.35;;
68214;SDS011;55036;52.138;5.236;2023-06-22T02:39:46;8.23;;;7.25;;
68214;SDS011;55036;52.138;5.236;2023-06-22T02:42:12;9.90;;;7.22;;
68214;SDS011;55036;52.138;5.236;2023-06-22T02:44:39;8.70;;;7.38;;
68214;SDS011;55036;52.138;5.236;2023-06-22T02:47:06;9.05;;;7.50;;
68214;SDS011;55036;52.138;5.236;2023-06-22T02:49:33;9.30;;;7.10;;
68214;SDS011;55036;52.138;5.236;2023-06-22T02:52:00;9.40;;;7.25;;
68214;SDS011;55036;52.138;5.236;2023-06-22T02:54:27;9.60;;;7.85;;
68214;SDS011;55036;52.138;5.236;2023-06-22T02:56:53;10.27;;;7.82;;
68214;SDS011;55036;52.138;5.236;2023-06-22T02:59:20;9.98;;;7.43;;
68214;SDS011;55036;52.138;5.236;2023-06-22T03:01:50;10.68;;;7.95;;
68214;SDS011;55036;52.138;5.236;2023-06-22T03:04:17;11.18;;;7.60;;
68214;SDS011;55036;52.138;5.236;2023-06-22T03:06:44;12.52;;;8.55;;
68214;SDS011;55036;52.138;5.236;2023-06-22T03:09:17;10.52;;;8.25;;
68214;SDS011;55036;52.138;5.236;2023-06-22T03:11:44;13.10;;;9.07;;
68214;SDS011;55036;52.138;5.236;2023-06-22T03:14:11;12.65;;;9.70;;
68214;SDS011;55036;52.138;5.236;2023-06-22T03:16:37;12.43;;;8.50;;
68214;SDS011;55036;52.138;5.236;2023-06-22T03:19:04;11.05;;;8.25;;
68214;SDS011;55036;52.138;5.236;2023-06-22T03:21:31;10.77;;;7.70;;
68214;SDS011;55036;52.138;5.236;2023-06-22T03:23:58;10.52;;;8.50;;
68214;SDS011;55036;52.138;5.236;2023-06-22T03:26:25;11.23;;;8.00;;
68214;SDS011;55036;52.138;5.236;2023-06-22T03:28:53;10.63;;;8.23;;
68214;SDS011;55036;52.138;5.236;2023-06-22T03:31:20;15.15;;;9.38;;
68214;SDS011;55036;52.138;5.236;2023-06-22T03:33:48;9.75;;;8.43;;
68214;SDS011;55036;52.138;5.236;2023-06-22T03:36:16;10.73;;;8.48;;
68214;SDS011;55036;52.138;5.236;2023-06-22T03:38:47;11.52;;;7.97;;
68214;SDS011;55036;52.138;5.236;2023-06-22T03:41:15;10.32;;;7.82;;
68214;SDS011;55036;52.138;5.236;2023-06-22T03:43:42;9.55;;;7.70;;
68214;SDS011;55036;52.138;5.236;2023-06-22T03:46:09;10.40;;;8.25;;
68214;SDS011;55036;52.138;5.236;2023-06-22T03:48:36;11.15;;;8.95;;
68214;SDS011;55036;52.138;5.236;2023-06-22T03:51:03;10.95;;;8.85;;
68214;SDS011;55036;52.138;5.236;2023-06-22T03:53:30;11.50;;;9.50;;
68214;SDS011;55036;52.138;5.236;2023-06-22T03:55:57;12.93;;;9.27;;
68214;SDS011;55036;52.138;5.236;2023-06-22T03:58:24;10.10;;;8.75;;
68214;SDS011;55036;52.138;5.236;2023-06-22T04:00:51;11.82;;;8.63;;
68214;SDS011;55036;52.138;5.236;2023-06-22T04:03:19;11.38;;;8.63;;
68214;SDS011;55036;52.138;5.236;2023-06-22T04:05:46;9.75;;;8.50;;
68214;SDS011;55036;52.138;5.236;2023-06-22T04:08:14;14.73;;;9.77;;
68214;SDS011;55036;52.138;5.236;2023-06-22T04:10:41;16.23;;;10.05;;
68214;SDS011;55036;52.138;5.236;2023-06-22T04:13:08;12.80;;;9.98;;
68214;SDS011;55036;52.138;5.236;2023-06-22T04:15:35;10.57;;;8.80;;
68214;SDS011;55036;52.138;5.236;2023-06-22T04:18:02;11.98;;;10.10;;
68214;SDS011;55036;52.138;5.236;2023-06-22T04:20:29;14.43;;;10.45;;
68214;SDS011;55036;52.138;5.236;2023-06-22T04:22:58;13.57;;;9.50;;
68214;SDS011;55036;52.138;5.236;2023-06-22T04:25:25;14.98;;;11.85;;
68214;SDS011;55036;52.138;5.236;2023-06-22T04:27:52;14.20;;;11.95;;
68214;SDS011;55036;52.138;5.236;2023-06-22T04:30:18;14.95;;;10.93;;
68214;SDS011;55036;52.138;5.236;2023-06-22T04:32:45;15.30;;;12.13;;
68214;SDS011;55036;52.138;5.236;2023-06-22T04:35:24;15.23;;;12.20;;
68214;SDS011;55036;52.138;5.236;2023-06-22T04:37:52;19.05;;;12.77;;
68214;SDS011;55036;52.138;5.236;2023-06-22T04:40:24;15.15;;;12.35;;
68214;SDS011;55036;52.138;5.236;2023-06-22T04:42:51;14.20;;;10.23;;
68214;SDS011;55036;52.138;5.236;2023-06-22T04:45:20;13.35;;;10.70;;
68214;SDS011;55036;52.138;5.236;2023-06-22T04:47:47;15.00;;;12.93;;
68214;SDS011;55036;52.138;5.236;2023-06-22T04:50:15;17.20;;;13.35;;
68214;SDS011;55036;52.138;5.236;2023-06-22T04:52:43;19.23;;;12.98;;
68214;SDS011;55036;52.138;5.236;2023-06-22T04:55:09;15.18;;;12.40;;
68214;SDS011;55036;52.138;5.236;2023-06-22T04:57:39;17.90;;;12.65;;
68214;SDS011;55036;52.138;5.236;2023-06-22T05:00:06;16.13;;;13.10;;
68214;SDS011;55036;52.138;5.236;2023-06-22T05:02:40;19.77;;;14.10;;
68214;SDS011;55036;52.138;5.236;2023-06-22T05:05:08;17.25;;;12.70;;
68214;SDS011;55036;52.138;5.236;2023-06-22T05:07:35;15.88;;;13.35;;
68214;SDS011;55036;52.138;5.236;2023-06-22T05:10:02;16.48;;;13.77;;
68214;SDS011;55036;52.138;5.236;2023-06-22T05:12:30;16.98;;;14.07;;
68214;SDS011;55036;52.138;5.236;2023-06-22T05:14:57;19.52;;;14.43;;
68214;SDS011;55036;52.138;5.236;2023-06-22T05:17:24;20.48;;;14.60;;
68214;SDS011;55036;52.138;5.236;2023-06-22T05:19:51;18.58;;;14.65;;
68214;SDS011;55036;52.138;5.236;2023-06-22T05:22:18;20.30;;;14.52;;
68214;SDS011;55036;52.138;5.236;2023-06-22T05:24:45;20.88;;;16.13;;
68214;SDS011;55036;52.138;5.236;2023-06-22T05:27:13;21.98;;;16.60;;
68214;SDS011;55036;52.138;5.236;2023-06-22T05:29:40;19.95;;;16.83;;
68214;SDS011;55036;52.138;5.236;2023-06-22T05:32:09;19.98;;;16.25;;
68214;SDS011;55036;52.138;5.236;2023-06-22T05:34:36;21.17;;;16.77;;
68214;SDS011;55036;52.138;5.236;2023-06-22T05:37:03;22.02;;;17.55;;
68214;SDS011;55036;52.138;5.236;2023-06-22T05:39:30;20.80;;;15.02;;
68214;SDS011;55036;52.138;5.236;2023-06-22T05:41:57;20.80;;;16.40;;
68214;SDS011;55036;52.138;5.236;2023-06-22T05:44:24;19.77;;;17.60;;
68214;SDS011;55036;52.138;5.236;2023-06-22T05:46:50;24.85;;;18.50;;
68214;SDS011;55036;52.138;5.236;2023-06-22T05:49:17;24.88;;;17.88;;
68214;SDS011;55036;52.138;5.236;2023-06-22T05:51:44;25.15;;;20.05;;
68214;SDS011;55036;52.138;5.236;2023-06-22T05:54:11;27.40;;;23.45;;
68214;SDS011;55036;52.138;5.236;2023-06-22T05:56:39;30.17;;;24.33;;
68214;SDS011;55036;52.138;5.236;2023-06-22T05:59:06;32.65;;;25.00;;
68214;SDS011;55036;52.138;5.236;2023-06-22T06:01:33;31.05;;;24.77;;
68214;SDS011;55036;52.138;5.236;2023-06-22T06:04:02;31.33;;;25.02;;
68214;SDS011;55036;52.138;5.236;2023-06-22T06:06:39;33.90;;;25.30;;
68214;SDS011;55036;52.138;5.236;2023-06-22T06:09:05;31.30;;;26.90;;
68214;SDS011;55036;52.138;5.236;2023-06-22T06:11:33;35.08;;;27.63;;
68214;SDS011;55036;52.138;5.236;2023-06-22T06:14:00;31.02;;;25.65;;
68214;SDS011;55036;52.138;5.236;2023-06-22T06:16:27;34.65;;;26.65;;
68214;SDS011;55036;52.138;5.236;2023-06-22T06:18:54;31.83;;;26.25;;
68214;SDS011;55036;52.138;5.236;2023-06-22T06:21:22;33.90;;;27.30;;
68214;SDS011;55036;52.138;5.236;2023-06-22T06:23:49;35.20;;;26.88;;
68214;SDS011;55036;52.138;5.236;2023-06-22T06:26:16;32.90;;;25.77;;
68214;SDS011;55036;52.138;5.236;2023-06-22T06:28:43;32.78;;;24.67;;
68214;SDS011;55036;52.138;5.236;2023-06-22T06:31:10;28.38;;;24.60;;
68214;SDS011;55036;52.138;5.236;2023-06-22T06:33:38;30.92;;;24.92;;
68214;SDS011;55036;52.138;5.236;2023-06-22T06:36:05;30.98;;;26.38;;
68214;SDS011;55036;52.138;5.236;2023-06-22T06:38:31;32.20;;;26.23;;
68214;SDS011;55036;52.138;5.236;2023-06-22T06:40:58;30.88;;;25.17;;
68214;SDS011;55036;52.138;5.236;2023-06-22T06:43:25;29.52;;;23.42;;
68214;SDS011;55036;52.138;5.236;2023-06-22T06:45:52;29.67;;;24.35;;
68214;SDS011;55036;52.138;5.236;2023-06-22T06:48:19;29.75;;;23.35;;
68214;SDS011;55036;52.138;5.236;2023-06-22T06:50:46;27.13;;;22.40;;
68214;SDS011;55036;52.138;5.236;2023-06-22T06:53:13;28.50;;;23.67;;
68214;SDS011;55036;52.138;5.236;2023-06-22T06:55:40;26.83;;;23.20;;
68214;SDS011;55036;52.138;5.236;2023-06-22T06:58:07;29.73;;;24.48;;
68214;SDS011;55036;52.138;5.236;2023-06-22T07:00:36;25.65;;;21.55;;
68214;SDS011;55036;52.138;5.236;2023-06-22T07:03:03;29.67;;;25.10;;
68214;SDS011;55036;52.138;5.236;2023-06-22T07:05:30;26.73;;;19.92;;
68214;SDS011;55036;52.138;5.236;2023-06-22T07:07:57;25.35;;;21.70;;
68214;SDS011;55036;52.138;5.236;2023-06-22T07:10:23;26.38;;;22.80;;
68214;SDS011;55036;52.138;5.236;2023-06-22T07:12:50;26.88;;;23.98;;
68214;SDS011;55036;52.138;5.236;2023-06-22T07:15:17;27.15;;;22.58;;
68214;SDS011;55036;52.138;5.236;2023-06-22T07:17:44;26.77;;;22.17;;
68214;SDS011;55036;52.138;5.236;2023-06-22T07:20:11;30.35;;;23.92;;
68214;SDS011;55036;52.138;5.236;2023-06-22T07:22:39;27.02;;;22.20;;
68214;SDS011;55036;52.138;5.236;2023-06-22T07:25:06;26.60;;;22.13;;
68214;SDS011;55036;52.138;5.236;2023-06-22T07:27:39;24.45;;;21.58;;
68214;SDS011;55036;52.138;5.236;2023-06-22T07:30:10;24.42;;;21.63;;
68214;SDS011;55036;52.138;5.236;2023-06-22T07:32:37;23.08;;;20.30;;
68214;SDS011;55036;52.138;5.236;2023-06-22T07:35:04;25.70;;;21.13;;
68214;SDS011;55036;52.138;5.236;2023-06-22T07:37:32;23.67;;;20.80;;
68214;SDS011;55036;52.138;5.236;2023-06-22T07:40:01;29.63;;;20.98;;
68214;SDS011;55036;52.138;5.236;2023-06-22T07:42:32;24.08;;;19.30;;
68214;SDS011;55036;52.138;5.236;2023-06-22T07:45:02;21.17;;;18.60;;
68214;SDS011;55036;52.138;5.236;2023-06-22T07:47:30;20.52;;;17.27;;
68214;SDS011;55036;52.138;5.236;2023-06-22T07:49:59;20.60;;;17.75;;
68214;SDS011;55036;52.138;5.236;2023-06-22T07:52:28;22.52;;;18.65;;
68214;SDS011;55036;52.138;5.236;2023-06-22T07:54:55;25.38;;;21.40;;
68214;SDS011;55036;52.138;5.236;2023-06-22T07:57:22;18.88;;;16.58;;
68214;SDS011;55036;52.138;5.236;2023-06-22T07:59:48;21.92;;;18.02;;
68214;SDS011;55036;52.138;5.236;2023-06-22T08:02:15;22.30;;;17.13;;
68214;SDS011;55036;52.138;5.236;2023-06-22T08:04:42;20.58;;;18.38;;
68214;SDS011;55036;52.138;5.236;2023-06-22T08:07:09;22.55;;;17.55;;
68214;SDS011;55036;52.138;5.236;2023-06-22T08:09:36;18.85;;;16.33;;
68214;SDS011;55036;52.138;5.236;2023-06-22T08:12:03;20.35;;;16.67;;
68214;SDS011;55036;52.138;5.236;2023-06-22T08:14:30;19.48;;;17.10;;
68214;SDS011;55036;52.138;5.236;2023-06-22T08:16:57;17.00;;;15.10;;
68214;SDS011;55036;52.138;5.236;2023-06-22T08:19:24;17.05;;;14.32;;
68214;SDS011;55036;52.138;5.236;2023-06-22T08:21:50;14.43;;;12.85;;
68214;SDS011;55036;52.138;5.236;2023-06-22T08:24:17;13.60;;;12.18;;
68214;SDS011;55036;52.138;5.236;2023-06-22T08:26:44;13.65;;;11.50;;
68214;SDS011;55036;52.138;5.236;2023-06-22T08:29:11;17.85;;;13.30;;
68214;SDS011;55036;52.138;5.236;2023-06-22T08:31:37;14.40;;;11.30;;
68214;SDS011;55036;52.138;5.236;2023-06-22T08:34:05;14.35;;;10.68;;
68214;SDS011;55036;52.138;5.236;2023-06-22T08:36:31;12.98;;;9.55;;
68214;SDS011;55036;52.138;5.236;2023-06-22T08:39:07;11.75;;;10.23;;
68214;SDS011;55036;52.138;5.236;2023-06-22T08:41:34;12.10;;;10.30;;
68214;SDS011;55036;52.138;5.236;2023-06-22T08:44:01;11.02;;;8.88;;
68214;SDS011;55036;52.138;5.236;2023-06-22T08:46:28;12.48;;;8.68;;
68214;SDS011;55036;52.138;5.236;2023-06-22T08:48:59;13.18;;;10.68;;
68214;SDS011;55036;52.138;5.236;2023-06-22T08:51:27;10.65;;;8.93;;
68214;SDS011;55036;52.138;5.236;2023-06-22T08:53:54;8.68;;;7.47;;
68214;SDS011;55036;52.138;5.236;2023-06-22T08:56:20;11.98;;;7.60;;
68214;SDS011;55036;52.138;5.236;2023-06-22T08:58:47;8.77;;;6.72;;
68214;SDS011;55036;52.138;5.236;2023-06-22T09:01:14;7.00;;;6.13;;
68214;SDS011;55036;52.138;5.236;2023-06-22T09:03:41;6.97;;;4.78;;
68214;SDS011;55036;52.138;5.236;2023-06-22T09:06:08;7.95;;;6.10;;
68214;SDS011;55036;52.138;5.236;2023-06-22T09:08:36;7.50;;;5.47;;
68214;SDS011;55036;52.138;5.236;2023-06-22T09:11:03;6.88;;;6.10;;
68214;SDS011;55036;52.138;5.236;2023-06-22T09:13:30;8.90;;;5.60;;
68214;SDS011;55036;52.138;5.236;2023-06-22T09:15:58;8.70;;;7.00;;
68214;SDS011;55036;52.138;5.236;2023-06-22T09:18:24;7.63;;;6.03;;
68214;SDS011;55036;52.138;5.236;2023-06-22T09:20:51;9.88;;;6.47;;
68214;SDS011;55036;52.138;5.236;2023-06-22T09:23:18;8.40;;;6.43;;
68214;SDS011;55036;52.138;5.236;2023-06-22T09:25:44;7.22;;;4.95;;
68214;SDS011;55036;52.138;5.236;2023-06-22T09:28:14;8.25;;;6.70;;
68214;SDS011;55036;52.138;5.236;2023-06-22T09:30:42;7.63;;;5.55;;
68214;SDS011;55036;52.138;5.236;2023-06-22T09:33:10;10.82;;;5.90;;
68214;SDS011;55036;52.138;5.236;2023-06-22T09:35:37;8.95;;;6.57;;
68214;SDS011;55036;52.138;5.236;2023-06-22T09:38:04;7.45;;;6.30;;
68214;SDS011;55036;52.138;5.236;2023-06-22T09:40:31;7.00;;;5.57;;
68214;SDS011;55036;52.138;5.236;2023-06-22T09:43:01;6.85;;;5.18;;
68214;SDS011;55036;52.138;5.236;2023-06-22T09:45:28;6.55;;;5.13;;
68214;SDS011;55036;52.138;5.236;2023-06-22T09:47:55;8.50;;;5.05;;
68214;SDS011;55036;52.138;5.236;2023-06-22T09:50:22;6.72;;;4.18;;
68214;SDS011;55036;52.138;5.236;2023-06-22T09:52:48;6.00;;;4.82;;
68214;SDS011;55036;52.138;5.236;2023-06-22T09:55:21;6.45;;;5.10;;
68214;SDS011;55036;52.138;5.236;2023-06-22T09:57:48;5.63;;;4.30;;
68214;SDS011;55036;52.138;5.236;2023-06-22T10:00:16;5.85;;;4.57;;
68214;SDS011;55036;52.138;5.236;2023-06-22T10:02:45;5.30;;;4.00;;
68214;SDS011;55036;52.138;5.236;2023-06-22T10:05:13;7.90;;;5.13;;
68214;SDS011;55036;52.138;5.236;2023-06-22T10:07:40;8.35;;;5.90;;
68214;SDS011;55036;52.138;5.236;2023-06-22T10:10:10;8.18;;;5.15;;
68214;SDS011;55036;52.138;5.236;2023-06-22T10:12:41;7.85;;;6.18;;
68214;SDS011;55036;52.138;5.236;2023-06-22T10:15:12;11.70;;;6.20;;
68214;SDS011;55036;52.138;5.236;2023-06-22T10:17:40;8.57;;;6.18;;
68214;SDS011;55036;52.138;5.236;2023-06-22T10:20:07;7.25;;;5.75;;
68214;SDS011;55036;52.138;5.236;2023-06-22T10:22:42;8.38;;;6.10;;
68214;SDS011;55036;52.138;5.236;2023-06-22T10:25:10;7.80;;;5.63;;
68214;SDS011;55036;52.138;5.236;2023-06-22T10:27:38;6.70;;;5.75;;
68214;SDS011;55036;52.138;5.236;2023-06-22T10:30:08;8.77;;;6.23;;
68214;SDS011;55036;52.138;5.236;2023-06-22T10:32:37;6.82;;;5.15;;
68214;SDS011;55036;52.138;5.236;2023-06-22T10:35:04;7.55;;;6.18;;
68214;SDS011;55036;52.138;5.236;2023-06-22T10:37:31;8.27;;;6.40;;
68214;SDS011;55036;52.138;5.236;2023-06-22T10:39:58;8.32;;;6.35;;
68214;SDS011;55036;52.138;5.236;2023-06-22T10:42:25;7.13;;;6.03;;
68214;SDS011;55036;52.138;5.236;2023-06-22T10:44:52;9.52;;;6.32;;
68214;SDS011;55036;52.138;5.236;2023-06-22T10:47:18;8.65;;;6.65;;
68214;SDS011;55036;52.138;5.236;2023-06-22T10:49:45;7.43;;;5.93;;
68214;SDS011;55036;52.138;5.236;2023-06-22T10:52:12;7.32;;;6.00;;
68214;SDS011;55036;52.138;5.236;2023-06-22T10:54:38;7.63;;;5.43;;
68214;SDS011;55036;52.138;5.236;2023-06-22T10:57:05;10.63;;;5.25;;
68214;SDS011;55036;52.138;5.236;2023-06-22T10:59:32;10.73;;;6.28;;
68214;SDS011;55036;52.138;5.236;2023-06-22T11:01:59;10.10;;;5.63;;
68214;SDS011;55036;52.138;5.236;2023-06-22T11:04:26;10.38;;;7.03;;
68214;SDS011;55036;52.138;5.236;2023-06-22T11:06:53;7.55;;;5.65;;
68214;SDS011;55036;52.138;5.236;2023-06-22T11:09:19;12.15;;;6.40;;
68214;SDS011;55036;52.138;5.236;2023-06-22T11:11:55;7.35;;;5.60;;
68214;SDS011;55036;52.138;5.236;2023-06-22T11:14:22;9.35;;;6.25;;
68214;SDS011;55036;52.138;5.236;2023-06-22T11:16:49;8.95;;;6.72;;
68214;SDS011;55036;52.138;5.236;2023-06-22T11:19:16;8.75;;;6.38;;
68214;SDS011;55036;52.138;5.236;2023-06-22T11:21:43;7.75;;;5.68;;
68214;SDS011;55036;52.138;5.236;2023-06-22T11:24:10;9.02;;;6.57;;
68214;SDS011;55036;52.138;5.236;2023-06-22T11:26:37;10.75;;;6.63;;
68214;SDS011;55036;52.138;5.236;2023-06-22T11:29:04;7.47;;;6.22;;
68214;SDS011;55036;52.138;5.236;2023-06-22T11:31:34;8.27;;;5.80;;
68214;SDS011;55036;52.138;5.236;2023-06-22T11:34:02;9.10;;;5.28;;
68214;SDS011;55036;52.138;5.236;2023-06-22T11:36:29;9.13;;;6.55;;
68214;SDS011;55036;52.138;5.236;2023-06-22T11:38:59;11.45;;;7.72;;
68214;SDS011;55036;52.138;5.236;2023-06-22T11:41:26;11.82;;;5.93;;
68214;SDS011;55036;52.138;5.236;2023-06-22T11:43:53;9.52;;;7.00;;
68214;SDS011;55036;52.138;5.236;2023-06-22T11:46:19;7.25;;;6.55;;
68214;SDS011;55036;52.138;5.236;2023-06-22T11:48:46;11.15;;;6.22;;
68214;SDS011;55036;52.138;5.236;2023-06-22T11:51:13;9.30;;;7.55;;
68214;SDS011;55036;52.138;5.236;2023-06-22T11:53:40;9.63;;;7.05;;
68214;SDS011;55036;52.138;5.236;2023-06-22T11:56:06;8.32;;;6.88;;
68214;SDS011;55036;52.138;5.236;2023-06-22T11:58:35;7.50;;;6.18;;
68214;SDS011;55036;52.138;5.236;2023-06-22T12:01:02;9.80;;;7.22;;
68214;SDS011;55036;52.138;5.236;2023-06-22T12:03:29;10.10;;;6.82;;
68214;SDS011;55036;52.138;5.236;2023-06-22T12:05:56;9.20;;;6.75;;
68214;SDS011;55036;52.138;5.236;2023-06-22T12:08:23;9.18;;;6.78;;
68214;SDS011;55036;52.138;5.236;2023-06-22T12:10:50;7.60;;;6.35;;
68214;SDS011;55036;52.138;5.236;2023-06-22T12:13:18;9.00;;;5.68;;
68214;SDS011;55036;52.138;5.236;2023-06-22T12:15:44;9.88;;;7.07;;
68214;SDS011;55036;52.138;5.236;2023-06-22T12:18:11;10.13;;;6.50;;
68214;SDS011;55036;52.138;5.236;2023-06-22T12:20:40;11.10;;;7.55;;
68214;SDS011;55036;52.138;5.236;2023-06-22T12:23:07;9.98;;;7.30;;
68214;SDS011;55036;52.138;5.236;2023-06-22T12:25:34;12.18;;;8.00;;
68214;SDS011;55036;52.138;5.236;2023-06-22T12:28:00;12.07;;;9.20;;
68214;SDS011;55036;52.138;5.236;2023-06-22T12:30:27;10.73;;;8.48;;
68214;SDS011;55036;52.138;5.236;2023-06-22T12:32:54;9.48;;;7.40;;
68214;SDS011;55036;52.138;5.236;2023-06-22T12:35:22;10.02;;;8.10;;
68214;SDS011;55036;52.138;5.236;2023-06-22T12:37:48;11.45;;;8.98;;
68214;SDS011;55036;52.138;5.236;2023-06-22T12:40:15;13.02;;;9.00;;
68214;SDS011;55036;52.138;5.236;2023-06-22T12:42:44;12.38;;;9.65;;
68214;SDS011;55036;52.138;5.236;2023-06-22T12:45:12;10.75;;;9.20;;
68214;SDS011;55036;52.138;5.236;2023-06-22T12:47:38;12.80;;;10.32;;
68214;SDS011;55036;52.138;5.236;2023-06-22T12:50:05;13.80;;;11.43;;
68214;SDS011;55036;52.138;5.236;2023-06-22T12:52:32;11.07;;;9.80;;
68214;SDS011;55036;52.138;5.236;2023-06-22T12:55:02;11.73;;;10.50;;
68214;SDS011;55036;52.138;5.236;2023-06-22T12:57:29;11.32;;;10.00;;
68214;SDS011;55036;52.138;5.236;2023-06-22T12:59:56;13.48;;;12.10;;
68214;SDS011;55036;52.138;5.236;2023-06-22T13:02:24;12.57;;;11.13;;
68214;SDS011;55036;52.138;5.236;2023-06-22T13:04:51;13.27;;;10.88;;
68214;SDS011;55036;52.138;5.236;2023-06-22T13:07:18;14.05;;;11.20;;
68214;SDS011;55036;52.138;5.236;2023-06-22T13:09:49;13.80;;;11.63;;
68214;SDS011;55036;52.138;5.236;2023-06-22T13:12:20;18.67;;;12.07;;
68214;SDS011;55036;52.138;5.236;2023-06-22T13:14:47;15.77;;;12.48;;
68214;SDS011;55036;52.138;5.236;2023-06-22T13:17:14;16.30;;;11.88;;
68214;SDS011;55036;52.138;5.236;2023-06-22T13:19:41;13.85;;;11.98;;
68214;SDS011;55036;52.138;5.236;2023-06-22T13:22:25;13.38;;;11.93;;
68214;SDS011;55036;52.138;5.236;2023-06-22T13:24:54;20.45;;;12.60;;
68214;SDS011;55036;52.138;5.236;2023-06-22T13:27:21;16.38;;;13.40;;
68214;SDS011;55036;52.138;5.236;2023-06-22T13:29:49;14.35;;;12.73;;
68214;SDS011;55036;52.138;5.236;2023-06-22T13:32:16;17.40;;;14.02;;
68214;SDS011;55036;52.138;5.236;2023-06-22T13:34:43;17.60;;;14.30;;
68214;SDS011;55036;52.138;5.236;2023-06-22T13:37:09;16.00;;;14.00;;
68214;SDS011;55036;52.138;5.236;2023-06-22T13:39:36;18.25;;;15.23;;
68214;SDS011;55036;52.138;5.236;2023-06-22T13:42:03;18.33;;;15.45;;
68214;SDS011;55036;52.138;5.236;2023-06-22T13:44:30;16.45;;;13.98;;
68214;SDS011;55036;52.138;5.236;2023-06-22T13:46:57;18.08;;;16.17;;
68214;SDS011;55036;52.138;5.236;2023-06-22T13:49:24;19.42;;;15.63;;
68214;SDS011;55036;52.138;5.236;2023-06-22T13:51:50;21.45;;;17.48;;
68214;SDS011;55036;52.138;5.236;2023-06-22T13:54:17;20.05;;;15.80;;
68214;SDS011;55036;52.138;5.236;2023-06-22T13:56:47;17.85;;;15.98;;
68214;SDS011;55036;52.138;5.236;2023-06-22T13:59:13;19.45;;;16.92;;
68214;SDS011;55036;52.138;5.236;2023-06-22T14:01:40;18.50;;;15.30;;
68214;SDS011;55036;52.138;5.236;2023-06-22T14:04:08;17.02;;;15.25;;
68214;SDS011;55036;52.138;5.236;2023-06-22T14:06:35;18.33;;;16.48;;
68214;SDS011;55036;52.138;5.236;2023-06-22T14:09:01;20.30;;;16.08;;
68214;SDS011;55036;52.138;5.236;2023-06-22T14:11:29;20.65;;;16.17;;
68214;SDS011;55036;52.138;5.236;2023-06-22T14:13:55;17.75;;;15.00;;
68214;SDS011;55036;52.138;5.236;2023-06-22T14:16:22;19.40;;;17.05;;
68214;SDS011;55036;52.138;5.236;2023-06-22T14:18:49;17.55;;;15.25;;
68214;SDS011;55036;52.138;5.236;2023-06-22T14:21:16;21.80;;;17.02;;
68214;SDS011;55036;52.138;5.236;2023-06-22T14:23:43;18.70;;;16.75;;
68214;SDS011;55036;52.138;5.236;2023-06-22T14:26:15;17.67;;;15.95;;
68214;SDS011;55036;52.138;5.236;2023-06-22T14:28:46;15.85;;;13.25;;
68214;SDS011;55036;52.138;5.236;2023-06-22T14:31:14;17.38;;;15.45;;
68214;SDS011;55036;52.138;5.236;2023-06-22T14:33:45;16.70;;;15.00;;
68214;SDS011;55036;52.138;5.236;2023-06-22T14:36:13;17.40;;;15.50;;
68214;SDS011;55036;52.138;5.236;2023-06-22T14:38:41;14.43;;;12.32;;
68214;SDS011;55036;52.138;5.236;2023-06-22T14:41:08;19.00;;;13.93;;
68214;SDS011;55036;52.138;5.236;2023-06-22T14:43:44;18.45;;;15.23;;
68214;SDS011;55036;52.138;5.236;2023-06-22T14:46:18;17.98;;;14.82;;
68214;SDS011;55036;52.138;5.236;2023-06-22T14:48:45;16.58;;;14.88;;
68214;SDS011;55036;52.138;5.236;2023-06-22T14:51:12;16.45;;;14.38;;
68214;SDS011;55036;52.138;5.236;2023-06-22T14:53:45;15.20;;;13.50;;
68214;SDS011;55036;52.138;5.236;2023-06-22T14:56:12;17.67;;;14.48;;
68214;SDS011;55036;52.138;5.236;2023-06-22T14:58:41;16.33;;;13.20;;
68214;SDS011;55036;52.138;5.236;2023-06-22T15:01:12;14.95;;;13.35;;
68214;SDS011;55036;52.138;5.236;2023-06-22T15:03:39;15.73;;;14.02;;
68214;SDS011;55036;52.138;5.236;2023-06-22T15:06:07;14.35;;;12.38;;
68214;SDS011;55036;52.138;5.236;2023-06-22T15:08:36;14.15;;;12.15;;
68214;SDS011;55036;52.138;5.236;2023-06-22T15:11:04;14.32;;;12.60;;
68214;SDS011;55036;52.138;5.236;2023-06-22T15:13:31;14.63;;;13.07;;
68214;SDS011;55036;52.138;5.236;2023-06-22T15:16:00;14.35;;;12.30;;